Time;durP1;ratioP1;P1;durP2;ratioP2;P2;SDS_P1;SDS_P2;PMS_P1;PMS_P2;Temp;Humidity;BMP_temperature;BMP_pressure;BME280_temperature;BME280_humidity;BME280_pressure;Samples;Min_cycle;Max_cycle;Signal;HPM_P1;HPM_P2
2021/07/12 00:01:42;;;;;;;10.75;5.13;;;;;;;;;;5012120;28;20033;-70
2021/07/12 00:04:09;;;;;;;11.30;4.93;;;;;;;;;;5008861;28;20025;-69
2021/07/12 00:06:36;;;;;;;10.73;4.95;;;;;;;;;;5013103;28;20069;-70
2021/07/12 00:09:04;;;;;;;7.68;4.40;;;;;;;;;;5010778;28;20468;-70
2021/07/12 00:11:31;;;;;;;12.25;5.47;;;;;;;;;;4995220;28;20030;-70
2021/07/12 00:13:58;;;;;;;11.27;5.50;;;;;;;;;;5007074;28;20503;-70
2021/07/12 00:16:25;;;;;;;6.75;4.68;;;;;;;;;;5012777;28;20125;-70
2021/07/12 00:18:52;;;;;;;11.52;4.85;;;;;;;;;;5011982;28;20048;-70
2021/07/12 00:21:20;;;;;;;11.73;4.50;;;;;;;;;;4992686;28;20394;-70
2021/07/12 00:23:49;;;;;;;8.18;4.22;;;;;;;;;;5009494;28;20018;-70
2021/07/12 00:26:16;;;;;;;14.23;5.68;;;;;;;;;;5011490;28;20030;-70
2021/07/12 00:28:44;;;;;;;11.75;6.03;;;;;;;;;;4990102;28;20061;-70
2021/07/12 00:31:11;;;;;;;10.95;4.85;;;;;;;;;;5010289;28;20541;-70
2021/07/12 00:33:39;;;;;;;9.52;5.18;;;;;;;;;;5009574;28;20025;-71
2021/07/12 00:36:08;;;;;;;9.25;4.57;;;;;;;;;;5012762;28;20022;-70
2021/07/12 00:38:35;;;;;;;9.85;4.78;;;;;;;;;;5011518;28;20046;-70
2021/07/12 00:41:03;;;;;;;8.80;4.78;;;;;;;;;;5012024;28;20022;-70
2021/07/12 00:43:30;;;;;;;8.52;4.80;;;;;;;;;;5011716;28;20029;-70
2021/07/12 00:45:58;;;;;;;11.93;5.55;;;;;;;;;;5013452;28;20065;-70
2021/07/12 00:48:25;;;;;;;8.77;5.22;;;;;;;;;;5011800;28;20509;-71
2021/07/12 00:50:53;;;;;;;10.43;5.40;;;;;;;;;;4994609;28;20041;-70
2021/07/12 00:53:20;;;;;;;10.70;5.00;;;;;;;;;;5008502;28;20041;-71
2021/07/12 00:55:50;;;;;;;17.35;5.50;;;;;;;;;;5011780;28;20051;-71
2021/07/12 00:58:22;;;;;;;10.02;5.63;;;;;;;;;;5009828;28;20430;-70
2021/07/12 01:00:51;;;;;;;12.93;6.30;;;;;;;;;;5012274;28;20382;-71
2021/07/12 01:03:19;;;;;;;11.55;6.05;;;;;;;;;;5010207;28;20494;-70
2021/07/12 01:05:46;;;;;;;13.70;5.68;;;;;;;;;;5011943;28;20066;-70
2021/07/12 01:08:13;;;;;;;11.52;6.07;;;;;;;;;;5005410;28;20037;-70
2021/07/12 01:10:42;;;;;;;13.95;6.65;;;;;;;;;;5009586;28;20021;-69
2021/07/12 01:13:09;;;;;;;12.05;5.68;;;;;;;;;;5011583;28;20057;-69
2021/07/12 01:15:44;;;;;;;16.75;6.60;;;;;;;;;;4997442;28;20053;-69
2021/07/12 01:18:30;;;;;;;15.40;6.88;;;;;;;;;;5010206;28;20032;-69
2021/07/12 01:21:37;;;;;;;15.95;7.82;;;;;;;;;;5007938;28;20026;-70
2021/07/12 01:24:30;;;;;;;12.18;6.43;;;;;;;;;;4991537;28;20029;-70
2021/07/12 01:27:16;;;;;;;18.73;6.70;;;;;;;;;;4974079;28;20502;-70
2021/07/12 01:29:43;;;;;;;14.80;6.00;;;;;;;;;;5009712;28;20040;-69
2021/07/12 01:32:18;;;;;;;11.85;5.18;;;;;;;;;;5008835;28;20096;-69
2021/07/12 01:34:55;;;;;;;12.70;6.70;;;;;;;;;;5010130;28;20030;-69
2021/07/12 01:37:41;;;;;;;12.93;6.22;;;;;;;;;;5006487;28;20022;-69
2021/07/12 01:40:12;;;;;;;12.00;4.78;;;;;;;;;;5009510;28;20474;-70
2021/07/12 01:42:52;;;;;;;10.68;3.63;;;;;;;;;;5008923;28;20034;-70
2021/07/12 01:45:20;;;;;;;6.75;2.88;;;;;;;;;;5012354;28;20525;-69
2021/07/12 01:48:06;;;;;;;15.30;4.40;;;;;;;;;;5007939;28;20575;-71
2021/07/12 01:50:33;;;;;;;11.80;3.38;;;;;;;;;;5001348;28;20018;-70
2021/07/12 01:53:12;;;;;;;11.48;4.70;;;;;;;;;;5010594;28;20048;-70
2021/07/12 01:56:02;;;;;;;11.75;4.72;;;;;;;;;;5012434;28;20421;-70
2021/07/12 01:58:32;;;;;;;9.90;4.00;;;;;;;;;;4998145;28;20049;-69
2021/07/12 02:01:00;;;;;;;8.40;4.22;;;;;;;;;;5007482;28;20022;-69
2021/07/12 02:03:29;;;;;;;12.20;4.65;;;;;;;;;;5007381;28;20049;-70
2021/07/12 02:06:02;;;;;;;12.52;4.13;;;;;;;;;;4988886;28;20492;-69
2021/07/12 02:08:30;;;;;;;8.50;4.55;;;;;;;;;;5008422;28;20151;-69
2021/07/12 02:10:59;;;;;;;12.88;4.75;;;;;;;;;;5009614;28;20029;-69
2021/07/12 02:13:26;;;;;;;14.63;4.68;;;;;;;;;;5008604;28;20013;-70
2021/07/12 02:15:58;;;;;;;11.27;4.07;;;;;;;;;;4993213;28;20049;-68
2021/07/12 02:18:29;;;;;;;11.63;3.58;;;;;;;;;;5005009;28;20027;-70
2021/07/12 02:21:00;;;;;;;8.35;2.65;;;;;;;;;;5007982;28;20030;-69
2021/07/12 02:23:28;;;;;;;7.00;2.95;;;;;;;;;;4992411;28;20026;-69
2021/07/12 02:25:56;;;;;;;7.60;2.85;;;;;;;;;;5003840;28;20185;-69
2021/07/12 02:28:23;;;;;;;9.88;3.33;;;;;;;;;;4992044;28;20033;-69
2021/07/12 02:30:51;;;;;;;11.52;3.55;;;;;;;;;;5010173;28;20026;-70
2021/07/12 02:33:18;;;;;;;7.05;3.00;;;;;;;;;;5009153;28;20103;-70
2021/07/12 02:35:46;;;;;;;13.07;3.20;;;;;;;;;;5010438;28;20033;-69
2021/07/12 02:38:13;;;;;;;11.18;2.75;;;;;;;;;;4990976;28;20034;-69
2021/07/12 02:40:41;;;;;;;6.72;2.50;;;;;;;;;;5008068;28;20020;-70
2021/07/12 02:43:08;;;;;;;5.38;2.08;;;;;;;;;;5008625;28;20093;-69
2021/07/12 02:45:37;;;;;;;9.25;3.80;;;;;;;;;;5009976;28;20034;-70
2021/07/12 02:48:05;;;;;;;7.00;2.10;;;;;;;;;;5002825;28;20502;-70
2021/07/12 02:50:32;;;;;;;8.30;2.88;;;;;;;;;;5010508;28;20066;-69
2021/07/12 02:53:05;;;;;;;8.73;3.17;;;;;;;;;;5008951;28;20057;-71
2021/07/12 02:55:32;;;;;;;7.95;2.88;;;;;;;;;;5009874;28;20485;-70
2021/07/12 02:57:59;;;;;;;8.63;2.08;;;;;;;;;;4994299;28;20065;-70
2021/07/12 03:00:27;;;;;;;9.27;2.92;;;;;;;;;;5011480;28;20479;-70
2021/07/12 03:02:54;;;;;;;15.35;2.90;;;;;;;;;;5011142;28;20092;-70
2021/07/12 03:05:21;;;;;;;6.43;1.95;;;;;;;;;;5011708;28;20033;-70
2021/07/12 03:07:54;;;;;;;5.47;1.85;;;;;;;;;;5013967;28;20049;-70
2021/07/12 03:10:22;;;;;;;7.30;2.90;;;;;;;;;;5014649;28;20044;-70
2021/07/12 03:12:53;;;;;;;9.27;2.67;;;;;;;;;;5013811;28;20026;-71
2021/07/12 03:15:26;;;;;;;7.22;2.08;;;;;;;;;;5014811;28;20034;-70
2021/07/12 03:17:54;;;;;;;7.35;2.15;;;;;;;;;;5012472;28;20109;-70
2021/07/12 03:20:22;;;;;;;9.00;2.67;;;;;;;;;;5014875;28;20028;-70
2021/07/12 03:22:53;;;;;;;7.03;2.70;;;;;;;;;;5013216;28;20029;-71
2021/07/12 03:25:25;;;;;;;7.18;1.85;;;;;;;;;;5011331;28;20120;-70
2021/07/12 03:27:57;;;;;;;8.18;2.53;;;;;;;;;;5010021;28;20014;-70
2021/07/12 03:30:26;;;;;;;8.30;2.50;;;;;;;;;;5014460;28;20014;-70
2021/07/12 03:32:54;;;;;;;8.20;2.55;;;;;;;;;;5008856;28;20025;-70
2021/07/12 03:35:22;;;;;;;13.18;2.85;;;;;;;;;;4994285;28;20042;-70
2021/07/12 03:37:50;;;;;;;12.10;3.50;;;;;;;;;;5011492;28;20041;-69
2021/07/12 03:40:18;;;;;;;11.07;3.22;;;;;;;;;;4994321;28;20580;-70
2021/07/12 03:42:46;;;;;;;10.70;3.53;;;;;;;;;;5013063;28;20061;-70
2021/07/12 03:45:13;;;;;;;6.28;2.72;;;;;;;;;;5010781;28;20037;-69
2021/07/12 03:47:41;;;;;;;8.45;2.97;;;;;;;;;;5002941;28;20029;-70
2021/07/12 03:50:15;;;;;;;8.68;2.90;;;;;;;;;;5008739;28;20430;-70
2021/07/12 03:52:46;;;;;;;6.00;2.25;;;;;;;;;;5012442;28;20077;-70
2021/07/12 03:55:15;;;;;;;9.93;3.13;;;;;;;;;;4996647;28;20060;-68
2021/07/12 03:57:43;;;;;;;10.07;2.65;;;;;;;;;;4996504;28;20471;-69
2021/07/12 04:00:15;;;;;;;8.15;2.08;;;;;;;;;;5013796;28;20026;-69
2021/07/12 04:02:42;;;;;;;6.57;2.22;;;;;;;;;;5002032;28;20368;-69
2021/07/12 04:05:10;;;;;;;13.98;2.70;;;;;;;;;;5013280;28;20057;-69
2021/07/12 04:07:38;;;;;;;12.00;2.42;;;;;;;;;;5012055;28;20057;-68
2021/07/12 04:10:06;;;;;;;13.30;2.50;;;;;;;;;;5009657;28;20065;-68
2021/07/12 04:12:34;;;;;;;12.55;2.80;;;;;;;;;;5006206;28;20037;-69
2021/07/12 04:15:01;;;;;;;13.02;2.72;;;;;;;;;;5008614;28;20601;-69
2021/07/12 04:17:28;;;;;;;11.82;3.05;;;;;;;;;;5011038;28;20119;-69
2021/07/12 04:19:56;;;;;;;11.13;2.58;;;;;;;;;;4996276;28;20034;-69
2021/07/12 04:22:24;;;;;;;13.82;2.83;;;;;;;;;;5008051;28;20497;-68
2021/07/12 04:24:52;;;;;;;9.18;2.65;;;;;;;;;;5013728;28;20386;-68
2021/07/12 04:27:19;;;;;;;7.95;2.42;;;;;;;;;;5011772;28;20418;-68
2021/07/12 04:29:48;;;;;;;8.25;1.77;;;;;;;;;;5013442;28;20614;-68
2021/07/12 04:32:15;;;;;;;5.88;1.63;;;;;;;;;;5012641;28;20379;-68
2021/07/12 04:34:42;;;;;;;9.07;1.60;;;;;;;;;;5009291;28;20446;-68
2021/07/12 04:37:09;;;;;;;4.65;1.10;;;;;;;;;;5004110;28;20037;-68
2021/07/12 04:39:37;;;;;;;5.45;1.45;;;;;;;;;;5010398;28;20033;-68
2021/07/12 04:42:04;;;;;;;7.07;0.90;;;;;;;;;;5005848;28;20858;-68
2021/07/12 04:44:31;;;;;;;7.57;1.20;;;;;;;;;;5012803;28;20540;-68
2021/07/12 04:47:00;;;;;;;6.63;0.80;;;;;;;;;;5013358;28;20034;-69
2021/07/12 04:49:27;;;;;;;4.47;0.60;;;;;;;;;;5011038;28;20049;-68
2021/07/12 04:51:55;;;;;;;6.18;0.88;;;;;;;;;;5008069;28;20347;-68
2021/07/12 04:54:22;;;;;;;6.40;1.15;;;;;;;;;;5010800;28;20030;-68
2021/07/12 04:56:49;;;;;;;6.30;0.70;;;;;;;;;;5012350;28;20037;-69
2021/07/12 04:59:23;;;;;;;6.72;1.33;;;;;;;;;;5005655;28;20064;-69
2021/07/12 05:01:50;;;;;;;5.65;1.40;;;;;;;;;;5007853;28;20057;-69
2021/07/12 05:04:17;;;;;;;5.15;1.10;;;;;;;;;;5010193;28;20033;-69
2021/07/12 05:06:45;;;;;;;3.67;0.88;;;;;;;;;;5012764;28;20049;-70
2021/07/12 05:09:12;;;;;;;4.68;0.70;;;;;;;;;;5006099;28;20058;-69
2021/07/12 05:11:39;;;;;;;3.70;1.25;;;;;;;;;;5011075;28;20018;-69
2021/07/12 05:14:06;;;;;;;3.80;1.15;;;;;;;;;;5012057;28;20026;-70
2021/07/12 05:16:36;;;;;;;3.10;1.08;;;;;;;;;;5013419;28;20025;-70
2021/07/12 05:19:04;;;;;;;3.53;1.35;;;;;;;;;;4992561;28;20049;-70
2021/07/12 05:21:31;;;;;;;6.50;0.90;;;;;;;;;;5010662;28;20029;-69
2021/07/12 05:23:58;;;;;;;6.68;0.90;;;;;;;;;;5012139;28;20512;-69
2021/07/12 05:26:26;;;;;;;3.35;0.68;;;;;;;;;;5011494;28;20065;-69
2021/07/12 05:28:53;;;;;;;5.00;1.38;;;;;;;;;;5011670;28;20104;-71
2021/07/12 05:31:21;;;;;;;8.82;1.50;;;;;;;;;;5015551;28;20104;-69
2021/07/12 05:33:48;;;;;;;3.75;1.10;;;;;;;;;;5014877;28;20030;-69
2021/07/12 05:36:15;;;;;;;6.55;1.52;;;;;;;;;;5011200;28;20058;-70
2021/07/12 05:38:42;;;;;;;8.82;1.35;;;;;;;;;;5008934;28;20033;-69
2021/07/12 05:41:09;;;;;;;8.70;1.52;;;;;;;;;;5012442;28;20552;-69
2021/07/12 05:43:36;;;;;;;8.77;1.58;;;;;;;;;;5008751;28;20419;-70
2021/07/12 05:46:05;;;;;;;6.57;1.83;;;;;;;;;;5012162;28;20117;-69
2021/07/12 05:48:33;;;;;;;11.18;2.63;;;;;;;;;;5010611;28;20022;-69
2021/07/12 05:51:00;;;;;;;10.40;1.95;;;;;;;;;;5012352;28;20570;-70
2021/07/12 05:53:27;;;;;;;9.23;1.30;;;;;;;;;;5011166;28;20057;-70
2021/07/12 05:55:54;;;;;;;8.10;1.83;;;;;;;;;;5012640;28;20037;-69
2021/07/12 05:58:21;;;;;;;8.65;2.47;;;;;;;;;;5008620;28;20064;-70
2021/07/12 06:00:48;;;;;;;10.52;1.48;;;;;;;;;;5007815;28;20026;-70
2021/07/12 06:03:16;;;;;;;9.57;1.80;;;;;;;;;;5009646;28;20033;-70
2021/07/12 06:05:43;;;;;;;10.68;2.15;;;;;;;;;;5010070;28;20034;-69
2021/07/12 06:08:10;;;;;;;9.57;2.25;;;;;;;;;;5011028;28;20422;-70
2021/07/12 06:10:37;;;;;;;9.18;2.13;;;;;;;;;;5012766;28;20357;-69
2021/07/12 06:13:04;;;;;;;12.70;2.50;;;;;;;;;;5010173;28;20030;-69
2021/07/12 06:15:31;;;;;;;6.80;2.97;;;;;;;;;;5002977;28;20490;-70
2021/07/12 06:17:58;;;;;;;13.13;2.10;;;;;;;;;;5010917;28;20022;-70
2021/07/12 06:20:26;;;;;;;9.93;2.10;;;;;;;;;;5012505;28;20022;-69
2021/07/12 06:22:53;;;;;;;15.45;2.67;;;;;;;;;;5010578;28;20030;-69
2021/07/12 06:25:21;;;;;;;10.30;1.60;;;;;;;;;;5012169;28;20030;-69
2021/07/12 06:27:48;;;;;;;14.90;2.33;;;;;;;;;;5006876;28;20375;-69
2021/07/12 06:30:17;;;;;;;7.88;2.33;;;;;;;;;;5009984;28;20026;-69
2021/07/12 06:32:44;;;;;;;10.55;2.10;;;;;;;;;;5007248;28;20033;-69
2021/07/12 06:35:12;;;;;;;6.60;1.95;;;;;;;;;;5008696;28;20085;-69
2021/07/12 06:37:39;;;;;;;10.05;1.70;;;;;;;;;;5016247;28;20042;-69
2021/07/12 06:40:07;;;;;;;11.68;2.20;;;;;;;;;;5011129;28;20121;-69
2021/07/12 06:42:34;;;;;;;12.75;1.92;;;;;;;;;;5008205;28;20028;-69
2021/07/12 06:45:04;;;;;;;9.73;2.88;;;;;;;;;;5007229;28;21998;-72
2021/07/12 06:47:31;;;;;;;6.70;1.50;;;;;;;;;;5006047;28;20026;-71
2021/07/12 06:49:58;;;;;;;12.23;2.58;;;;;;;;;;4993166;28;20022;-71
2021/07/12 06:52:25;;;;;;;7.22;1.70;;;;;;;;;;5010062;28;20148;-72
2021/07/12 06:54:52;;;;;;;8.93;2.45;;;;;;;;;;5012119;28;20114;-71
2021/07/12 06:57:19;;;;;;;9.68;1.48;;;;;;;;;;4991503;28;20506;-71
2021/07/12 06:59:47;;;;;;;6.55;1.50;;;;;;;;;;5011721;28;20117;-72
2021/07/12 07:02:15;;;;;;;7.82;1.83;;;;;;;;;;4993010;28;20030;-71
2021/07/12 07:04:42;;;;;;;8.15;1.90;;;;;;;;;;5010365;28;20628;-71
2021/07/12 07:07:10;;;;;;;6.55;1.27;;;;;;;;;;4992865;28;20045;-71
2021/07/12 07:09:37;;;;;;;10.73;2.65;;;;;;;;;;5010631;28;20045;-71
2021/07/12 07:12:04;;;;;;;12.95;2.25;;;;;;;;;;5012083;28;20029;-71
2021/07/12 07:14:31;;;;;;;8.43;2.33;;;;;;;;;;5008443;28;20065;-71
2021/07/12 07:16:58;;;;;;;8.05;1.75;;;;;;;;;;5011648;28;20064;-71
2021/07/12 07:19:26;;;;;;;11.95;1.70;;;;;;;;;;5008393;28;20368;-71
2021/07/12 07:21:54;;;;;;;11.70;2.10;;;;;;;;;;5012407;28;20048;-71
2021/07/12 07:24:22;;;;;;;15.57;2.63;;;;;;;;;;5009011;28;20024;-71
2021/07/12 07:26:49;;;;;;;12.85;2.10;;;;;;;;;;5004455;28;20117;-71
2021/07/12 07:29:16;;;;;;;12.20;2.10;;;;;;;;;;4991358;28;20034;-71
2021/07/12 07:31:45;;;;;;;7.72;2.00;;;;;;;;;;5011973;28;20101;-71
2021/07/12 07:34:14;;;;;;;8.23;1.90;;;;;;;;;;5007682;28;20033;-71
2021/07/12 07:36:42;;;;;;;9.07;2.30;;;;;;;;;;5011242;28;20030;-71
2021/07/12 07:39:09;;;;;;;8.50;3.17;;;;;;;;;;5008154;28;20037;-72
2021/07/12 07:41:36;;;;;;;10.70;5.65;;;;;;;;;;5010354;28;20025;-70
2021/07/12 07:44:07;;;;;;;15.98;2.90;;;;;;;;;;5005457;28;20128;-70
2021/07/12 07:46:35;;;;;;;13.40;2.38;;;;;;;;;;5012369;28;20030;-69
2021/07/12 07:49:04;;;;;;;17.08;3.38;;;;;;;;;;5010651;28;20026;-70
2021/07/12 07:51:31;;;;;;;9.15;2.83;;;;;;;;;;5013615;28;20079;-69
2021/07/12 07:53:58;;;;;;;8.13;2.45;;;;;;;;;;5011295;28;20026;-70
2021/07/12 07:56:25;;;;;;;12.18;2.90;;;;;;;;;;5006128;28;20441;-69
2021/07/12 07:58:52;;;;;;;13.95;3.47;;;;;;;;;;5014128;28;20034;-70
2021/07/12 08:01:20;;;;;;;14.32;3.53;;;;;;;;;;5013345;28;20018;-70
2021/07/12 08:03:47;;;;;;;9.73;3.10;;;;;;;;;;5008499;28;20540;-70
2021/07/12 08:06:17;;;;;;;14.75;3.35;;;;;;;;;;5003100;28;20041;-70
2021/07/12 08:08:47;;;;;;;13.63;4.15;;;;;;;;;;4991537;28;20053;-74
2021/07/12 08:11:15;;;;;;;14.20;3.70;;;;;;;;;;5015209;28;20030;-75
2021/07/12 08:13:42;;;;;;;15.30;4.70;;;;;;;;;;5017183;28;20025;-74
2021/07/12 08:16:09;;;;;;;19.23;5.60;;;;;;;;;;5003219;28;20363;-74
2021/07/12 08:18:37;;;;;;;12.55;4.13;;;;;;;;;;5009781;28;20033;-74
2021/07/12 08:21:04;;;;;;;19.95;4.45;;;;;;;;;;5010266;28;20520;-74
2021/07/12 08:23:31;;;;;;;16.58;5.25;;;;;;;;;;5016513;28;20032;-74
2021/07/12 08:25:59;;;;;;;18.27;4.93;;;;;;;;;;5023109;28;20036;-74
2021/07/12 08:28:26;;;;;;;18.02;4.32;;;;;;;;;;5008248;28;20034;-74
2021/07/12 08:30:54;;;;;;;20.35;3.78;;;;;;;;;;5013163;28;20034;-73
2021/07/12 08:33:22;;;;;;;13.50;3.33;;;;;;;;;;5005313;28;20065;-74
2021/07/12 08:35:49;;;;;;;16.90;5.78;;;;;;;;;;5001025;28;20050;-74
2021/07/12 08:38:16;;;;;;;12.63;3.17;;;;;;;;;;4994847;28;20030;-74
2021/07/12 08:40:43;;;;;;;11.43;4.20;;;;;;;;;;4994608;28;20045;-75
2021/07/12 08:43:12;;;;;;;11.93;3.70;;;;;;;;;;5021497;28;20505;-74
2021/07/12 08:45:39;;;;;;;15.13;3.65;;;;;;;;;;5027596;28;20045;-73
2021/07/12 08:48:06;;;;;;;9.48;2.78;;;;;;;;;;5001779;28;20383;-74
2021/07/12 08:50:33;;;;;;;12.70;4.07;;;;;;;;;;5018282;28;20559;-74
2021/07/12 08:53:01;;;;;;;11.50;3.05;;;;;;;;;;5029529;28;20061;-74
2021/07/12 08:55:28;;;;;;;13.60;3.72;;;;;;;;;;5016017;28;20025;-74
2021/07/12 08:57:58;;;;;;;11.65;2.67;;;;;;;;;;5015538;28;20466;-75
2021/07/12 09:00:44;;;;;;;14.65;3.00;;;;;;;;;;4994247;28;20410;-74
2021/07/12 09:03:23;;;;;;;8.80;2.50;;;;;;;;;;5019040;28;20022;-75
2021/07/12 09:06:02;;;;;;;7.18;2.30;;;;;;;;;;5022750;28;20391;-73
2021/07/12 09:08:38;;;;;;;11.07;3.13;;;;;;;;;;5000811;28;20120;-73
2021/07/12 09:11:07;;;;;;;11.80;2.80;;;;;;;;;;4995701;28;20593;-70
2021/07/12 09:13:43;;;;;;;11.60;3.05;;;;;;;;;;5013476;28;20113;-71
2021/07/12 09:16:27;;;;;;;12.98;3.03;;;;;;;;;;5018059;28;20088;-71
2021/07/12 09:19:04;;;;;;;11.17;2.77;;;;;;;;;;5018411;28;20029;-71
2021/07/12 09:21:35;;;;;;;10.55;2.97;;;;;;;;;;5032587;28;20014;-71
2021/07/12 09:24:13;;;;;;;7.28;2.78;;;;;;;;;;5012365;28;20451;-71
2021/07/12 09:26:51;;;;;;;12.38;3.17;;;;;;;;;;5012482;28;20042;-71
2021/07/12 09:29:18;;;;;;;9.27;2.60;;;;;;;;;;5012841;28;20053;-71
2021/07/12 09:31:46;;;;;;;11.30;3.40;;;;;;;;;;5025572;28;20057;-71
2021/07/12 09:34:13;;;;;;;7.70;2.30;;;;;;;;;;5025732;28;20032;-70
2021/07/12 09:36:40;;;;;;;8.27;2.35;;;;;;;;;;5014597;28;20379;-70
2021/07/12 09:39:20;;;;;;;10.40;3.13;;;;;;;;;;5028148;28;20537;-71
2021/07/12 09:41:52;;;;;;;10.05;2.67;;;;;;;;;;5016926;28;20033;-71
2021/07/12 09:44:20;;;;;;;12.50;2.72;;;;;;;;;;5012620;28;20042;-71
2021/07/12 09:46:47;;;;;;;8.48;2.50;;;;;;;;;;5012659;28;20104;-71
2021/07/12 09:49:16;;;;;;;6.25;2.40;;;;;;;;;;5021112;28;20475;-71
2021/07/12 09:51:44;;;;;;;10.82;3.80;;;;;;;;;;5018415;28;20065;-71
2021/07/12 09:54:18;;;;;;;13.27;3.33;;;;;;;;;;5031625;28;20116;-75
2021/07/12 09:56:45;;;;;;;6.85;2.17;;;;;;;;;;5014260;28;20036;-75
2021/07/12 09:59:13;;;;;;;6.90;3.17;;;;;;;;;;5013201;28;20083;-76
2021/07/12 10:01:45;;;;;;;10.43;2.50;;;;;;;;;;5013593;28;20051;-74
2021/07/12 10:04:13;;;;;;;10.05;3.33;;;;;;;;;;5008568;28;20449;-74
2021/07/12 10:06:40;;;;;;;9.45;3.03;;;;;;;;;;5016243;28;20072;-75
2021/07/12 10:09:08;;;;;;;7.18;2.67;;;;;;;;;;5019621;28;20519;-76
2021/07/12 10:11:36;;;;;;;8.23;1.80;;;;;;;;;;5010314;28;20370;-70
2021/07/12 10:14:04;;;;;;;15.73;3.92;;;;;;;;;;5016409;28;20029;-71
2021/07/12 10:16:31;;;;;;;12.18;3.95;;;;;;;;;;5013719;28;20087;-71
2021/07/12 10:18:59;;;;;;;10.50;3.83;;;;;;;;;;5013371;28;20477;-71
2021/07/12 10:21:34;;;;;;;11.85;5.40;;;;;;;;;;5012199;28;20056;-70
2021/07/12 10:24:01;;;;;;;10.93;4.22;;;;;;;;;;5030826;28;20022;-70
2021/07/12 10:26:46;;;;;;;11.35;4.47;;;;;;;;;;5021907;28;20030;-70
2021/07/12 10:29:18;;;;;;;9.32;3.78;;;;;;;;;;5012361;28;20041;-70
2021/07/12 10:31:59;;;;;;;7.68;2.67;;;;;;;;;;5023827;28;20109;-71
2021/07/12 10:34:31;;;;;;;7.28;3.22;;;;;;;;;;5015224;28;20033;-70
2021/07/12 10:37:04;;;;;;;9.43;2.72;;;;;;;;;;5030820;28;20524;-70
2021/07/12 10:39:49;;;;;;;9.75;2.90;;;;;;;;;;5030234;28;20044;-70
2021/07/12 10:42:36;;;;;;;9.13;2.67;;;;;;;;;;5010778;28;20394;-71
2021/07/12 10:45:29;;;;;;;6.68;2.70;;;;;;;;;;5027223;28;20040;-71
2021/07/12 10:48:01;;;;;;;11.30;3.40;;;;;;;;;;5026573;28;20076;-71
2021/07/12 10:50:48;;;;;;;9.95;2.63;;;;;;;;;;4991984;28;20045;-71
2021/07/12 10:53:15;;;;;;;10.15;3.40;;;;;;;;;;5005794;28;20072;-71
2021/07/12 10:56:05;;;;;;;11.10;2.25;;;;;;;;;;5006114;28;20053;-70
2021/07/12 10:58:32;;;;;;;7.70;2.28;;;;;;;;;;5012036;28;20022;-69
2021/07/12 11:01:01;;;;;;;11.18;3.08;;;;;;;;;;5008653;28;20129;-70
2021/07/12 11:03:48;;;;;;;9.25;2.45;;;;;;;;;;5008239;28;20084;-69
2021/07/12 11:06:17;;;;;;;10.18;2.88;;;;;;;;;;5026790;28;20029;-70
2021/07/12 11:08:54;;;;;;;11.77;3.28;;;;;;;;;;5032108;28;20054;-70
2021/07/12 11:11:23;;;;;;;8.75;3.53;;;;;;;;;;5031878;28;20022;-70
2021/07/12 11:13:50;;;;;;;10.32;2.97;;;;;;;;;;5002368;28;20546;-70
2021/07/12 11:16:19;;;;;;;8.63;3.50;;;;;;;;;;4998689;28;20030;-69
2021/07/12 11:18:46;;;;;;;6.13;3.08;;;;;;;;;;5016893;28;20047;-70
2021/07/12 11:21:18;;;;;;;10.85;3.25;;;;;;;;;;5033952;28;20022;-70
2021/07/12 11:23:49;;;;;;;9.35;3.80;;;;;;;;;;5034789;28;20018;-70
2021/07/12 11:26:30;;;;;;;9.15;3.65;;;;;;;;;;5035695;28;20466;-70
2021/07/12 11:28:58;;;;;;;11.23;3.42;;;;;;;;;;5016909;28;20489;-69
2021/07/12 11:31:45;;;;;;;11.98;4.07;;;;;;;;;;5012131;28;20040;-69
2021/07/12 11:34:32;;;;;;;11.57;4.13;;;;;;;;;;5012046;28;20036;-68
2021/07/12 11:37:04;;;;;;;9.13;2.22;;;;;;;;;;5029683;28;20022;-72
2021/07/12 11:39:34;;;;;;;11.18;3.80;;;;;;;;;;5027246;28;20024;-69
2021/07/12 11:42:12;;;;;;;10.38;2.78;;;;;;;;;;5014238;28;20139;-70
2021/07/12 11:44:39;;;;;;;7.18;2.92;;;;;;;;;;5018644;28;20029;-70
2021/07/12 11:47:21;;;;;;;7.72;2.67;;;;;;;;;;5023333;28;20120;-71
2021/07/12 11:49:52;;;;;;;8.50;3.10;;;;;;;;;;5021787;28;20034;-73
2021/07/12 11:52:19;;;;;;;8.43;2.95;;;;;;;;;;5020249;28;20386;-71
2021/07/12 11:54:47;;;;;;;7.60;3.70;;;;;;;;;;5033631;28;20022;-71
2021/07/12 11:57:15;;;;;;;9.32;3.35;;;;;;;;;;5016723;28;20061;-70
2021/07/12 11:59:46;;;;;;;6.03;2.65;;;;;;;;;;5031387;28;20097;-71
2021/07/12 12:02:14;;;;;;;10.02;3.00;;;;;;;;;;5031356;28;20030;-71
2021/07/12 12:04:46;;;;;;;6.55;2.50;;;;;;;;;;5013185;28;20033;-70
2021/07/12 12:07:39;;;;;;;7.07;2.65;;;;;;;;;;5006399;28;20038;-70
2021/07/12 12:10:10;;;;;;;11.13;2.60;;;;;;;;;;4993587;28;20045;-69
2021/07/12 12:12:46;;;;;;;4.93;1.92;;;;;;;;;;5013627;28;20053;-70
2021/07/12 12:15:17;;;;;;;5.75;2.10;;;;;;;;;;5017814;28;20052;-71
2021/07/12 12:17:47;;;;;;;6.95;2.40;;;;;;;;;;5013886;28;20109;-71
2021/07/12 12:20:25;;;;;;;7.15;2.00;;;;;;;;;;5029117;28;20377;-71
2021/07/12 12:23:19;;;;;;;4.82;2.10;;;;;;;;;;5014986;28;20091;-70
2021/07/12 12:25:51;;;;;;;5.60;2.10;;;;;;;;;;5009288;28;20054;-72
2021/07/12 12:28:23;;;;;;;5.43;2.53;;;;;;;;;;5002765;28;20447;-69
2021/07/12 12:30:51;;;;;;;4.53;2.70;;;;;;;;;;5031170;28;20617;-72
2021/07/12 12:33:24;;;;;;;8.77;3.95;;;;;;;;;;5015732;28;20029;-70
2021/07/12 12:35:56;;;;;;;11.88;4.70;;;;;;;;;;4993318;28;20430;-70
2021/07/12 12:38:23;;;;;;;8.27;3.85;;;;;;;;;;5003402;28;20389;-69
2021/07/12 12:40:56;;;;;;;9.20;3.70;;;;;;;;;;5016019;28;20368;-71
2021/07/12 12:43:24;;;;;;;8.85;4.03;;;;;;;;;;4996898;28;20034;-70
2021/07/12 12:45:52;;;;;;;7.07;3.10;;;;;;;;;;5000392;28;20036;-71
2021/07/12 12:48:35;;;;;;;7.05;3.30;;;;;;;;;;5019117;28;20021;-71
2021/07/12 12:51:22;;;;;;;7.32;3.15;;;;;;;;;;5011502;28;20029;-70
2021/07/12 12:53:59;;;;;;;6.03;2.83;;;;;;;;;;5019760;28;20041;-70
2021/07/12 12:56:26;;;;;;;6.97;2.95;;;;;;;;;;5024177;28;20025;-70
2021/07/12 12:59:04;;;;;;;6.60;2.55;;;;;;;;;;5022530;28;20437;-70
2021/07/12 13:01:32;;;;;;;7.32;3.30;;;;;;;;;;5007649;28;20087;-70
2021/07/12 13:04:06;;;;;;;9.20;3.72;;;;;;;;;;5005878;28;20052;-70
2021/07/12 13:06:33;;;;;;;;;;;;;;;;;;5020059;28;20036;-71
2021/07/12 13:09:00;;;;;;;9.52;3.17;;;;;;;;;;5018717;28;19925;-71
2021/07/12 13:11:27;;;;;;;12.05;3.80;;;;;;;;;;5011596;28;20037;-70
2021/07/12 13:13:57;;;;;;;7.53;3.10;;;;;;;;;;5008654;28;20053;-71
2021/07/12 13:16:30;;;;;;;8.50;3.20;;;;;;;;;;5024586;28;20109;-71
2021/07/12 13:18:57;;;;;;;7.63;3.13;;;;;;;;;;5015791;28;20032;-71
2021/07/12 13:21:42;;;;;;;10.65;3.55;;;;;;;;;;5031225;28;20529;-70
2021/07/12 13:24:09;;;;;;;7.57;3.03;;;;;;;;;;5025313;28;20025;-70
2021/07/12 13:26:36;;;;;;;7.78;3.38;;;;;;;;;;5028224;28;20510;-70
2021/07/12 13:29:04;;;;;;;8.38;3.38;;;;;;;;;;5022470;28;20109;-71
2021/07/12 13:31:31;;;;;;;5.63;2.80;;;;;;;;;;5001162;28;20030;-70
2021/07/12 13:33:58;;;;;;;5.78;2.85;;;;;;;;;;5007588;28;20018;-70
2021/07/12 13:36:25;;;;;;;7.05;2.85;;;;;;;;;;5008730;28;20064;-70
2021/07/12 13:38:52;;;;;;;7.30;2.53;;;;;;;;;;4990550;28;20034;-70
2021/07/12 13:41:19;;;;;;;6.93;2.90;;;;;;;;;;4991997;28;20034;-70
2021/07/12 13:43:46;;;;;;;9.60;3.47;;;;;;;;;;5007670;28;20393;-70
2021/07/12 13:46:13;;;;;;;8.10;2.95;;;;;;;;;;4993388;28;20044;-70
2021/07/12 13:48:41;;;;;;;6.18;2.70;;;;;;;;;;5006341;28;20036;-69
2021/07/12 13:51:10;;;;;;;8.63;3.65;;;;;;;;;;5008385;28;20045;-69
2021/07/12 13:53:37;;;;;;;7.63;2.53;;;;;;;;;;5008737;28;20545;-69
2021/07/12 13:56:04;;;;;;;5.38;2.80;;;;;;;;;;5011340;28;20581;-70
2021/07/12 13:58:31;;;;;;;6.72;2.83;;;;;;;;;;5007342;28;20045;-69
2021/07/12 14:00:58;;;;;;;7.28;3.38;;;;;;;;;;5007845;28;20460;-70
2021/07/12 14:03:28;;;;;;;6.85;2.97;;;;;;;;;;5009230;28;20751;-70
2021/07/12 14:05:56;;;;;;;8.75;3.92;;;;;;;;;;5010532;28;20475;-70
2021/07/12 14:08:23;;;;;;;10.30;3.65;;;;;;;;;;5010376;28;20046;-70
2021/07/12 14:10:53;;;;;;;7.75;4.07;;;;;;;;;;5007751;28;20014;-70
2021/07/12 14:13:20;;;;;;;6.03;3.15;;;;;;;;;;5008085;28;20025;-71
2021/07/12 14:15:47;;;;;;;7.75;3.25;;;;;;;;;;5008790;28;20370;-70
2021/07/12 14:18:14;;;;;;;9.00;3.28;;;;;;;;;;4992204;28;20057;-70
2021/07/12 14:20:42;;;;;;;10.57;3.45;;;;;;;;;;5010077;28;20062;-70
2021/07/12 14:23:09;;;;;;;11.38;3.47;;;;;;;;;;5008605;28;20533;-70
2021/07/12 14:25:37;;;;;;;7.65;3.20;;;;;;;;;;5010451;28;20037;-71
2021/07/12 14:28:04;;;;;;;13.10;3.03;;;;;;;;;;4990108;28;20490;-69
2021/07/12 14:30:31;;;;;;;6.00;3.00;;;;;;;;;;5010530;28;20022;-69
2021/07/12 14:32:59;;;;;;;8.27;3.13;;;;;;;;;;4990448;28;20426;-69
2021/07/12 14:35:26;;;;;;;7.70;3.20;;;;;;;;;;5005524;28;20108;-70
2021/07/12 14:37:53;;;;;;;7.20;3.10;;;;;;;;;;5008871;28;20026;-69
2021/07/12 14:40:20;;;;;;;10.68;3.88;;;;;;;;;;5009911;28;20022;-70
2021/07/12 14:42:48;;;;;;;6.43;3.28;;;;;;;;;;4990731;28;20026;-70
2021/07/12 14:45:15;;;;;;;5.50;2.35;;;;;;;;;;5008332;28;20030;-71
2021/07/12 14:47:42;;;;;;;8.10;2.40;;;;;;;;;;5011180;28;20038;-70
2021/07/12 14:50:09;;;;;;;5.97;2.78;;;;;;;;;;5012297;28;20017;-70
2021/07/12 14:52:36;;;;;;;9.63;2.45;;;;;;;;;;5014495;28;20022;-70
2021/07/12 14:55:04;;;;;;;7.35;2.38;;;;;;;;;;5016549;28;20076;-70